createdAt,value
2018-11-29T00:01:22.470Z,13.93
2018-11-29T00:06:26.497Z,12.87
2018-11-29T00:11:30.672Z,18.60
2018-11-29T00:16:34.464Z,12.57
2018-11-29T00:21:38.481Z,11.67
2018-11-29T00:26:42.601Z,11.13
2018-11-29T00:31:46.719Z,11.80
2018-11-29T00:36:50.850Z,11.90
2018-11-29T00:41:55.001Z,11.20
2018-11-29T00:46:59.127Z,13.83
2018-11-29T00:52:03.267Z,10.67
2018-11-29T00:57:07.054Z,11.37
2018-11-29T01:02:10.770Z,11.23
2018-11-29T01:07:14.831Z,11.83
2018-11-29T01:12:18.951Z,11.00
2018-11-29T01:17:23.073Z,13.13
2018-11-29T01:22:27.204Z,14.70
2018-11-29T01:27:31.315Z,12.80
2018-11-29T01:32:35.982Z,14.07
2018-11-29T01:37:40.135Z,13.43
2018-11-29T01:42:49.288Z,14.47
2018-11-29T01:47:53.410Z,14.80
2018-11-29T01:52:57.556Z,12.70
2018-11-29T01:58:01.704Z,10.43
2018-11-29T02:03:06.035Z,10.97
2018-11-29T02:08:10.233Z,11.73
2018-11-29T02:13:14.372Z,10.97
2018-11-29T02:18:18.182Z,11.07
2018-11-29T02:23:22.219Z,11.53
2018-11-29T02:28:26.527Z,10.67
2018-11-29T02:33:30.642Z,11.80
2018-11-29T02:38:34.841Z,12.70
2018-11-29T02:43:39.054Z,11.63
2018-11-29T02:48:42.846Z,12.17
2018-11-29T02:53:46.873Z,14.10
2018-11-29T02:58:51.024Z,13.97
2018-11-29T03:03:54.815Z,14.73
2018-11-29T03:08:58.546Z,15.80
2018-11-29T03:14:02.263Z,13.53
2018-11-29T03:19:06.742Z,13.27
2018-11-29T03:24:10.535Z,13.60
2018-11-29T03:29:14.563Z,11.03
2018-11-29T03:34:18.671Z,12.27
2018-11-29T03:39:22.830Z,11.33
2018-11-29T03:44:26.927Z,11.60
2018-11-29T03:49:31.047Z,10.93
2018-11-29T03:54:35.154Z,12.10
2018-11-29T03:59:38.949Z,12.77
2018-11-29T04:04:44.878Z,10.90
2018-11-29T04:09:49.021Z,14.87
2018-11-29T04:14:53.138Z,15.20
2018-11-29T04:19:57.269Z,16.27
2018-11-29T04:25:01.475Z,17.47
2018-11-29T04:30:05.737Z,14.50
2018-11-29T04:35:10.414Z,18.80
2018-11-29T04:40:15.622Z,17.53
2018-11-29T04:45:19.663Z,19.37
2018-11-29T04:50:23.959Z,18.27
2018-11-29T04:55:28.251Z,20.40
2018-11-29T05:00:32.360Z,19.03
2018-11-29T05:05:36.454Z,16.97
2018-11-29T05:10:41.897Z,17.37
2018-11-29T05:15:45.874Z,16.47
2018-11-29T05:20:50.288Z,21.97
2018-11-29T05:25:55.225Z,21.30
2018-11-29T05:30:59.065Z,25.70
2018-11-29T05:36:03.640Z,20.50
2018-11-29T05:41:07.605Z,18.20
2018-11-29T05:46:11.559Z,21.30
2018-11-29T05:51:15.257Z,26.03
2018-11-29T05:56:19.375Z,21.13
2018-11-29T06:01:29.830Z,19.53
2018-11-29T06:06:33.651Z,19.60
2018-11-29T06:11:39.786Z,21.40
2018-11-29T06:16:44.024Z,20.57
2018-11-29T06:21:48.127Z,22.90
2018-11-29T06:26:52.234Z,25.30
2018-11-29T06:31:56.351Z,18.37
2018-11-29T06:37:00.505Z,21.03
2018-11-29T06:42:04.638Z,21.10
2018-11-29T06:47:08.433Z,19.17
2018-11-29T06:52:12.446Z,18.33
2018-11-29T06:57:16.558Z,20.63
2018-11-29T07:02:20.689Z,18.97
2018-11-29T07:07:24.839Z,23.10
2018-11-29T07:12:28.946Z,20.37
2018-11-29T07:17:33.057Z,16.17
2018-11-29T07:22:37.184Z,21.07
2018-11-29T07:27:41.319Z,17.83
2018-11-29T07:32:45.682Z,11.23
2018-11-29T07:37:49.821Z,21.00
2018-11-29T07:42:54.867Z,16.30
2018-11-29T07:47:58.616Z,15.40
2018-11-29T07:53:02.303Z,16.87
2018-11-29T07:58:06.465Z,15.17
2018-11-29T08:03:10.145Z,13.97
2018-11-29T08:08:13.857Z,15.87
2018-11-29T08:13:17.913Z,15.97
2018-11-29T08:18:21.720Z,16.20
2018-11-29T08:23:25.764Z,12.20
2018-11-29T08:28:29.874Z,16.27
2018-11-29T08:33:33.978Z,17.27
2018-11-29T08:38:37.740Z,15.93
2018-11-29T08:43:41.439Z,16.53
2018-11-29T08:48:45.137Z,11.43
2018-11-29T08:53:48.846Z,14.97
2018-11-29T08:58:52.531Z,13.90
2018-11-29T09:03:56.231Z,9.43
2018-11-29T09:08:59.945Z,14.93
2018-11-29T09:14:03.649Z,13.57
2018-11-29T09:19:07.357Z,15.83
2018-11-29T09:24:11.375Z,10.27
2018-11-29T09:29:15.159Z,12.97
2018-11-29T09:34:18.862Z,12.53
2018-11-29T09:39:22.569Z,17.73
2018-11-29T09:44:26.270Z,16.33
2018-11-29T09:49:30.314Z,13.43
2018-11-29T09:54:34.099Z,11.03
2018-11-29T09:59:37.790Z,10.77
2018-11-29T10:04:41.828Z,11.00
2018-11-29T10:09:45.963Z,9.23
2018-11-29T10:14:50.078Z,13.90
2018-11-29T10:19:54.199Z,9.53
2018-11-29T10:24:57.982Z,12.83
2018-11-29T10:30:02.017Z,12.20
2018-11-29T10:35:06.887Z,11.70
2018-11-29T10:40:10.789Z,16.20
2018-11-29T10:45:15.013Z,12.60
2018-11-29T10:50:18.735Z,14.93
2018-11-29T10:55:22.429Z,14.67
2018-11-29T11:00:31.461Z,12.27
2018-11-29T11:05:35.988Z,12.50
2018-11-29T11:10:40.072Z,12.60
2018-11-29T11:15:43.824Z,10.90
2018-11-29T11:20:47.835Z,11.13
2018-11-29T11:25:51.688Z,10.07
2018-11-29T11:30:55.381Z,11.10
2018-11-29T11:35:59.423Z,10.30
2018-11-29T11:41:03.217Z,9.50
2018-11-29T11:46:06.937Z,9.97
2018-11-29T11:51:10.963Z,8.93
2018-11-29T11:56:14.746Z,8.23
2018-11-29T12:01:18.790Z,10.10
2018-11-29T12:06:22.905Z,10.03
2018-11-29T12:11:26.725Z,9.23
2018-11-29T12:16:30.422Z,9.73
2018-11-29T12:21:34.436Z,10.27
2018-11-29T12:26:38.555Z,9.33
2018-11-29T12:31:42.354Z,9.00
2018-11-29T12:36:46.046Z,7.97
2018-11-29T12:41:49.742Z,9.60
2018-11-29T12:46:53.774Z,10.90
2018-11-29T12:51:57.573Z,10.70
2018-11-29T12:57:01.586Z,8.60
2018-11-29T13:02:05.614Z,9.33
2018-11-29T13:07:09.671Z,10.33
2018-11-29T13:12:13.786Z,10.03
2018-11-29T13:17:17.574Z,8.53
2018-11-29T13:22:21.276Z,10.20
2018-11-29T13:27:24.990Z,11.73
2018-11-29T13:32:28.694Z,11.10
2018-11-29T13:37:32.775Z,10.80
2018-11-29T13:42:36.962Z,10.53
2018-11-29T13:47:40.956Z,12.43
2018-11-29T13:52:45.095Z,11.93
2018-11-29T13:57:49.418Z,11.50
2018-11-29T14:02:54.582Z,11.43
2018-11-29T14:07:58.335Z,10.67
2018-11-29T14:13:02.034Z,11.23
2018-11-29T14:18:06.062Z,10.47
2018-11-29T14:23:10.098Z,10.83
2018-11-29T14:28:14.352Z,10.87
2018-11-29T14:33:18.494Z,10.63
2018-11-29T14:38:22.271Z,11.00
2018-11-29T14:43:25.969Z,11.23
2018-11-29T14:48:30.026Z,10.90
2018-11-29T14:53:33.807Z,10.97
2018-11-29T14:58:37.830Z,11.43
2018-11-29T15:03:41.935Z,11.33
2018-11-29T15:08:46.063Z,10.87
2018-11-29T15:13:50.232Z,11.63
2018-11-29T15:18:54.368Z,12.47
2018-11-29T15:23:58.500Z,14.37
2018-11-29T15:29:02.287Z,14.50
2018-11-29T15:34:05.993Z,14.53
2018-11-29T15:39:10.878Z,12.90
2018-11-29T15:44:14.983Z,12.07
2018-11-29T15:49:19.095Z,12.47
2018-11-29T15:54:23.253Z,12.70
2018-11-29T15:59:27.363Z,13.27
2018-11-29T16:04:31.492Z,13.07
2018-11-29T16:09:35.321Z,12.80
2018-11-29T16:14:39.022Z,12.33
2018-11-29T16:19:42.838Z,12.63
2018-11-29T16:24:46.635Z,12.10
2018-11-29T16:29:52.757Z,11.27
2018-11-29T16:34:56.734Z,11.40
2018-11-29T16:40:00.845Z,11.33
2018-11-29T16:45:08.786Z,12.23
2018-11-29T16:50:15.195Z,13.13
2018-11-29T16:55:19.209Z,12.93
2018-11-29T17:00:24.300Z,13.17
2018-11-29T17:05:30.001Z,12.10
2018-11-29T17:10:33.897Z,10.93
2018-11-29T17:15:37.755Z,12.20
2018-11-29T17:20:42.128Z,12.70
2018-11-29T17:25:46.121Z,13.80
2018-11-29T17:30:49.943Z,12.90
2018-11-29T17:35:54.210Z,12.90
2018-11-29T17:40:58.191Z,13.33
2018-11-29T17:46:02.586Z,13.40
2018-11-29T17:51:06.513Z,14.00
2018-11-29T17:56:10.362Z,14.17
2018-11-29T18:01:14.788Z,14.67
2018-11-29T18:06:18.811Z,19.70
2018-11-29T18:11:23.559Z,18.07
2018-11-29T18:16:27.074Z,15.20
2018-11-29T18:21:30.805Z,14.43
2018-11-29T18:26:36.047Z,14.20
2018-11-29T18:31:40.659Z,15.23
2018-11-29T18:36:44.993Z,15.33
2018-11-29T18:41:48.859Z,15.80
2018-11-29T18:46:52.667Z,14.47
2018-11-29T18:51:56.686Z,14.57
2018-11-29T18:57:00.803Z,15.47
2018-11-29T19:02:05.324Z,17.67
2018-11-29T19:07:09.445Z,17.83
2018-11-29T19:12:13.270Z,22.13
2018-11-29T19:17:17.333Z,14.13
2018-11-29T19:22:21.463Z,16.23
2018-11-29T19:27:25.311Z,15.70
2018-11-29T19:32:29.016Z,17.10
2018-11-29T19:37:32.746Z,16.47
2018-11-29T19:42:36.489Z,18.93
2018-11-29T19:47:40.599Z,18.70
2018-11-29T19:52:48.971Z,16.07
2018-11-29T19:57:52.791Z,16.57
2018-11-29T20:02:56.708Z,17.67
2018-11-29T20:08:00.787Z,18.60
2018-11-29T20:13:07.542Z,21.43
2018-11-29T20:18:11.944Z,18.40
2018-11-29T20:23:16.973Z,19.37
2018-11-29T20:28:20.842Z,17.43
2018-11-29T20:33:24.545Z,18.63
2018-11-29T20:38:28.821Z,16.23
2018-11-29T20:43:32.694Z,17.23
2018-11-29T20:48:37.124Z,15.63
2018-11-29T20:53:41.298Z,17.87
2018-11-29T20:58:45.112Z,16.90
2018-11-29T21:03:49.213Z,15.27
2018-11-29T21:08:53.458Z,18.87
2018-11-29T21:13:57.298Z,17.37
2018-11-29T21:19:01.101Z,17.73
2018-11-29T21:24:05.259Z,18.50
2018-11-29T21:29:09.066Z,18.93
2018-11-29T21:34:12.761Z,16.47
2018-11-29T21:39:16.771Z,19.47
2018-11-29T21:44:20.566Z,20.30
2018-11-29T21:49:26.232Z,18.10
2018-11-29T21:54:32.944Z,17.23
2018-11-29T21:59:37.361Z,17.70
2018-11-29T22:04:41.377Z,15.47
2018-11-29T22:09:48.955Z,16.80
2018-11-29T22:14:54.067Z,16.67
2018-11-29T22:19:58.438Z,16.60
2018-11-29T22:25:01.885Z,20.27
2018-11-29T22:30:06.271Z,16.47
2018-11-29T22:35:10.373Z,17.47
2018-11-29T22:40:14.281Z,19.53
2018-11-29T22:45:18.545Z,21.10
2018-11-29T22:50:22.580Z,13.43
2018-11-29T22:55:26.577Z,17.87
2018-11-29T23:00:35.902Z,15.57
2018-11-29T23:05:40.323Z,13.83
2018-11-29T23:10:44.833Z,13.00
2018-11-29T23:15:49.461Z,14.13
2018-11-29T23:20:53.252Z,13.87
2018-11-29T23:25:57.336Z,15.67
2018-11-29T23:31:02.030Z,13.93
2018-11-29T23:36:06.474Z,14.30
2018-11-29T23:41:10.687Z,13.47
2018-11-29T23:46:14.795Z,13.77
2018-11-29T23:51:18.904Z,13.93
2018-11-29T23:56:23.034Z,12.70
